sensor_id;sensor_type;location;lat;lon;timestamp;pressure;altitude;pressure_sealevel;temperature;humidity
85476;BME280;75880;41.476;22.164;2024-01-30T00:01:51;102342.53;;;-0.43;76.90
85476;BME280;75880;41.476;22.164;2024-01-30T00:04:17;102328.56;;;-0.58;76.80
85476;BME280;75880;41.476;22.164;2024-01-30T00:06:46;102337.47;;;-0.64;77.67
85476;BME280;75880;41.476;22.164;2024-01-30T00:09:11;102332.81;;;-0.75;77.54
85476;BME280;75880;41.476;22.164;2024-01-30T00:11:37;102339.03;;;-0.81;77.29
85476;BME280;75880;41.476;22.164;2024-01-30T00:14:03;102342.56;;;-0.87;76.42
85476;BME280;75880;41.476;22.164;2024-01-30T00:16:29;102343.03;;;-1.03;75.95
85476;BME280;75880;41.476;22.164;2024-01-30T00:18:55;102339.59;;;-1.16;76.33
85476;BME280;75880;41.476;22.164;2024-01-30T00:21:21;102345.78;;;-1.29;76.46
85476;BME280;75880;41.476;22.164;2024-01-30T00:23:47;102352.63;;;-1.33;77.34
85476;BME280;75880;41.476;22.164;2024-01-30T00:26:13;102334.06;;;-1.47;77.44
85476;BME280;75880;41.476;22.164;2024-01-30T00:28:41;102338.41;;;-1.53;77.12
85476;BME280;75880;41.476;22.164;2024-01-30T00:31:07;102347.28;;;-1.59;77.29
85476;BME280;75880;41.476;22.164;2024-01-30T00:33:34;102327.09;;;-1.74;78.32
85476;BME280;75880;41.476;22.164;2024-01-30T00:36:00;102341.94;;;-1.65;78.53
85476;BME280;75880;41.476;22.164;2024-01-30T00:38:25;102337.81;;;-1.68;78.67
85476;BME280;75880;41.476;22.164;2024-01-30T00:40:51;102344.81;;;-1.67;78.14
85476;BME280;75880;41.476;22.164;2024-01-30T00:43:17;102353.50;;;-1.65;77.69
85476;BME280;75880;41.476;22.164;2024-01-30T00:45:45;102344.41;;;-1.70;77.06
85476;BME280;75880;41.476;22.164;2024-01-30T00:48:11;102346.28;;;-1.71;76.60
85476;BME280;75880;41.476;22.164;2024-01-30T00:50:37;102335.16;;;-1.74;77.45
85476;BME280;75880;41.476;22.164;2024-01-30T00:53:03;102347.94;;;-1.76;76.73
85476;BME280;75880;41.476;22.164;2024-01-30T00:55:28;102361.97;;;-1.81;76.92
85476;BME280;75880;41.476;22.164;2024-01-30T00:57:54;102352.06;;;-1.87;76.94
85476;BME280;75880;41.476;22.164;2024-01-30T01:00:20;102352.47;;;-1.90;77.64
85476;BME280;75880;41.476;22.164;2024-01-30T01:02:46;102357.44;;;-1.87;78.29
85476;BME280;75880;41.476;22.164;2024-01-30T01:05:12;102349.78;;;-1.90;77.93
85476;BME280;75880;41.476;22.164;2024-01-30T01:07:37;102348.16;;;-1.91;78.13
85476;BME280;75880;41.476;22.164;2024-01-30T01:10:03;102346.69;;;-1.93;78.75
85476;BME280;75880;41.476;22.164;2024-01-30T01:12:29;102355.78;;;-1.88;78.03
85476;BME280;75880;41.476;22.164;2024-01-30T01:14:55;102345.25;;;-1.89;77.81
85476;BME280;75880;41.476;22.164;2024-01-30T01:17:21;102347.53;;;-1.86;77.46
85476;BME280;75880;41.476;22.164;2024-01-30T01:19:46;102340.09;;;-1.91;77.65
85476;BME280;75880;41.476;22.164;2024-01-30T01:22:12;102341.13;;;-1.92;78.82
85476;BME280;75880;41.476;22.164;2024-01-30T01:24:38;102341.13;;;-1.92;77.56
85476;BME280;75880;41.476;22.164;2024-01-30T01:27:05;102346.28;;;-1.97;77.77
85476;BME280;75880;41.476;22.164;2024-01-30T01:29:31;102341.94;;;-2.11;78.39
85476;BME280;75880;41.476;22.164;2024-01-30T01:31:58;102332.25;;;-2.25;79.39
85476;BME280;75880;41.476;22.164;2024-01-30T01:34:24;102333.88;;;-2.30;79.88
85476;BME280;75880;41.476;22.164;2024-01-30T01:36:50;102333.28;;;-2.39;80.28
85476;BME280;75880;41.476;22.164;2024-01-30T01:39:17;102341.28;;;-2.45;80.39
85476;BME280;75880;41.476;22.164;2024-01-30T01:41:43;102336.09;;;-2.53;80.57
85476;BME280;75880;41.476;22.164;2024-01-30T01:44:09;102329.94;;;-2.54;80.78
85476;BME280;75880;41.476;22.164;2024-01-30T01:46:35;102326.00;;;-2.58;81.14
85476;BME280;75880;41.476;22.164;2024-01-30T01:49:02;102330.13;;;-2.62;81.25
85476;BME280;75880;41.476;22.164;2024-01-30T01:51:31;102331.56;;;-2.66;80.29
85476;BME280;75880;41.476;22.164;2024-01-30T01:54:02;102321.25;;;-2.69;80.99
85476;BME280;75880;41.476;22.164;2024-01-30T01:56:29;102333.59;;;-2.68;81.16
85476;BME280;75880;41.476;22.164;2024-01-30T01:58:59;102343.09;;;-2.59;80.75
85476;BME280;75880;41.476;22.164;2024-01-30T02:01:25;102314.25;;;-2.70;80.93
85476;BME280;75880;41.476;22.164;2024-01-30T02:03:52;102341.28;;;-2.45;80.45
85476;BME280;75880;41.476;22.164;2024-01-30T02:06:21;102338.81;;;-2.40;79.92
85476;BME280;75880;41.476;22.164;2024-01-30T02:08:47;102334.31;;;-2.40;79.65
85476;BME280;75880;41.476;22.164;2024-01-30T02:11:13;102346.44;;;-2.37;79.94
85476;BME280;75880;41.476;22.164;2024-01-30T02:13:38;102341.31;;;-2.39;79.64
85476;BME280;75880;41.476;22.164;2024-01-30T02:16:06;102345.03;;;-2.33;80.90
85476;BME280;75880;41.476;22.164;2024-01-30T02:18:32;102343.16;;;-2.39;79.90
85476;BME280;75880;41.476;22.164;2024-01-30T02:23:30;102357.16;;;-2.44;80.10
85476;BME280;75880;41.476;22.164;2024-01-30T02:25:56;102346.22;;;-2.55;79.32
85476;BME280;75880;41.476;22.164;2024-01-30T02:28:21;102346.19;;;-2.62;79.65
85476;BME280;75880;41.476;22.164;2024-01-30T02:30:50;102347.81;;;-2.67;79.98
85476;BME280;75880;41.476;22.164;2024-01-30T02:33:16;102358.94;;;-2.70;80.24
85476;BME280;75880;41.476;22.164;2024-01-30T02:35:41;102353.56;;;-2.77;80.42
85476;BME280;75880;41.476;22.164;2024-01-30T02:38:07;102366.09;;;-2.84;80.58
85476;BME280;75880;41.476;22.164;2024-01-30T02:40:33;102372.88;;;-2.88;80.75
85476;BME280;75880;41.476;22.164;2024-01-30T02:42:59;102367.94;;;-2.91;80.96
85476;BME280;75880;41.476;22.164;2024-01-30T02:45:25;102363.78;;;-2.93;81.01
85476;BME280;75880;41.476;22.164;2024-01-30T02:47:51;102358.63;;;-2.95;81.59
85476;BME280;75880;41.476;22.164;2024-01-30T02:50:17;102361.13;;;-2.93;81.56
85476;BME280;75880;41.476;22.164;2024-01-30T02:52:43;102354.91;;;-3.00;80.97
85476;BME280;75880;41.476;22.164;2024-01-30T02:55:10;102359.91;;;-2.91;80.72
85476;BME280;75880;41.476;22.164;2024-01-30T02:57:35;102369.75;;;-2.98;81.40
85476;BME280;75880;41.476;22.164;2024-01-30T03:00:01;102363.28;;;-3.10;81.42
85476;BME280;75880;41.476;22.164;2024-01-30T03:02:29;102358.78;;;-3.09;81.69
85476;BME280;75880;41.476;22.164;2024-01-30T03:04:54;102353.63;;;-3.11;82.18
85476;BME280;75880;41.476;22.164;2024-01-30T03:07:20;102360.41;;;-3.15;82.00
85476;BME280;75880;41.476;22.164;2024-01-30T03:09:46;102352.38;;;-3.15;82.31
85476;BME280;75880;41.476;22.164;2024-01-30T03:12:11;102343.09;;;-3.12;82.83
85476;BME280;75880;41.476;22.164;2024-01-30T03:14:37;102356.34;;;-3.04;82.52
85476;BME280;75880;41.476;22.164;2024-01-30T03:17:03;102355.50;;;-3.05;81.83
85476;BME280;75880;41.476;22.164;2024-01-30T03:19:29;102359.59;;;-3.09;82.09
85476;BME280;75880;41.476;22.164;2024-01-30T03:21:54;102364.28;;;-3.17;81.83
85476;BME280;75880;41.476;22.164;2024-01-30T03:24:20;102357.06;;;-3.23;81.94
85476;BME280;75880;41.476;22.164;2024-01-30T03:26:46;102364.28;;;-3.17;83.06
85476;BME280;75880;41.476;22.164;2024-01-30T03:29:12;102368.34;;;-3.28;81.20
85476;BME280;75880;41.476;22.164;2024-01-30T03:31:39;102365.50;;;-3.26;81.14
85476;BME280;75880;41.476;22.164;2024-01-30T03:34:05;102356.38;;;-3.32;83.21
85476;BME280;75880;41.476;22.164;2024-01-30T03:36:30;102358.63;;;-3.35;82.67
85476;BME280;75880;41.476;22.164;2024-01-30T03:38:58;102366.38;;;-3.47;82.29
85476;BME280;75880;41.476;22.164;2024-01-30T03:41:24;102372.16;;;-3.43;83.58
85476;BME280;75880;41.476;22.164;2024-01-30T03:43:50;102359.78;;;-3.51;83.19
85476;BME280;75880;41.476;22.164;2024-01-30T03:46:16;102355.19;;;-3.57;83.82
85476;BME280;75880;41.476;22.164;2024-01-30T03:48:42;102373.94;;;-3.50;82.94
85476;BME280;75880;41.476;22.164;2024-01-30T03:51:08;102370.47;;;-3.51;83.21
85476;BME280;75880;41.476;22.164;2024-01-30T03:53:35;102371.44;;;-3.58;82.61
85476;BME280;75880;41.476;22.164;2024-01-30T03:56:01;102361.72;;;-3.66;83.23
85476;BME280;75880;41.476;22.164;2024-01-30T03:58:26;102372.78;;;-3.69;82.80
85476;BME280;75880;41.476;22.164;2024-01-30T04:00:52;102370.78;;;-3.67;82.94
85476;BME280;75880;41.476;22.164;2024-01-30T04:03:18;102357.16;;;-3.72;84.20
85476;BME280;75880;41.476;22.164;2024-01-30T04:05:45;102356.28;;;-3.79;83.34
85476;BME280;75880;41.476;22.164;2024-01-30T04:08:11;102375.69;;;-3.70;83.43
85476;BME280;75880;41.476;22.164;2024-01-30T04:10:36;102365.16;;;-3.72;83.61
85476;BME280;75880;41.476;22.164;2024-01-30T04:13:02;102376.16;;;-3.60;84.27
85476;BME280;75880;41.476;22.164;2024-01-30T04:15:28;102375.53;;;-3.62;83.52
85476;BME280;75880;41.476;22.164;2024-01-30T04:17:58;102375.97;;;-3.59;83.69
85476;BME280;75880;41.476;22.164;2024-01-30T04:20:25;102378.88;;;-3.54;82.09
85476;BME280;75880;41.476;22.164;2024-01-30T04:22:51;102390.13;;;-3.65;83.42
85476;BME280;75880;41.476;22.164;2024-01-30T04:25:17;102385.97;;;-3.67;83.62
85476;BME280;75880;41.476;22.164;2024-01-30T04:27:42;102381.41;;;-3.73;83.87
85476;BME280;75880;41.476;22.164;2024-01-30T04:30:09;102381.22;;;-3.72;83.65
85476;BME280;75880;41.476;22.164;2024-01-30T04:32:35;102380.16;;;-3.77;82.97
85476;BME280;75880;41.476;22.164;2024-01-30T04:35:01;102400.56;;;-3.70;83.27
85476;BME280;75880;41.476;22.164;2024-01-30T04:37:26;102387.97;;;-3.76;83.66
85476;BME280;75880;41.476;22.164;2024-01-30T04:39:53;102396.38;;;-3.79;82.81
85476;BME280;75880;41.476;22.164;2024-01-30T04:42:19;102401.03;;;-3.87;83.17
85476;BME280;75880;41.476;22.164;2024-01-30T04:44:45;102392.94;;;-3.93;83.66
85476;BME280;75880;41.476;22.164;2024-01-30T04:47:10;102393.13;;;-3.95;84.60
85476;BME280;75880;41.476;22.164;2024-01-30T04:49:40;102390.69;;;-3.96;84.83
85476;BME280;75880;41.476;22.164;2024-01-30T04:52:07;102392.50;;;-3.97;83.90
85476;BME280;75880;41.476;22.164;2024-01-30T04:54:34;102396.97;;;-4.04;84.34
85476;BME280;75880;41.476;22.164;2024-01-30T04:57:00;102408.50;;;-4.03;83.85
85476;BME280;75880;41.476;22.164;2024-01-30T04:59:26;102411.91;;;-4.09;84.13
85476;BME280;75880;41.476;22.164;2024-01-30T05:01:52;102411.03;;;-4.16;84.65
85476;BME280;75880;41.476;22.164;2024-01-30T05:04:18;102419.66;;;-4.14;84.24
85476;BME280;75880;41.476;22.164;2024-01-30T05:06:44;102417.97;;;-4.22;85.87
85476;BME280;75880;41.476;22.164;2024-01-30T05:09:09;102425.78;;;-4.20;85.18
85476;BME280;75880;41.476;22.164;2024-01-30T05:11:40;102424.38;;;-4.16;85.09
85476;BME280;75880;41.476;22.164;2024-01-30T05:14:07;102431.13;;;-4.20;84.06
85476;BME280;75880;41.476;22.164;2024-01-30T05:16:33;102429.41;;;-4.28;84.59
85476;BME280;75880;41.476;22.164;2024-01-30T05:18:59;102430.16;;;-4.34;84.93
85476;BME280;75880;41.476;22.164;2024-01-30T05:21:25;102432.00;;;-4.34;85.71
85476;BME280;75880;41.476;22.164;2024-01-30T05:23:50;102437.59;;;-4.29;84.17
85476;BME280;75880;41.476;22.164;2024-01-30T05:26:16;102435.03;;;-4.37;85.58
85476;BME280;75880;41.476;22.164;2024-01-30T05:28:42;102425.50;;;-4.46;85.69
85476;BME280;75880;41.476;22.164;2024-01-30T05:31:10;102435.16;;;-4.45;84.88
85476;BME280;75880;41.476;22.164;2024-01-30T05:33:36;102439.88;;;-4.47;85.54
85476;BME280;75880;41.476;22.164;2024-01-30T05:36:02;102442.16;;;-4.44;86.44
85476;BME280;75880;41.476;22.164;2024-01-30T05:38:28;102447.75;;;-4.39;85.30
85476;BME280;75880;41.476;22.164;2024-01-30T05:40:54;102444.47;;;-4.41;85.69
85476;BME280;75880;41.476;22.164;2024-01-30T05:43:20;102459.28;;;-4.39;85.95
85476;BME280;75880;41.476;22.164;2024-01-30T05:45:46;102448.16;;;-4.42;85.24
85476;BME280;75880;41.476;22.164;2024-01-30T05:48:12;102459.34;;;-4.32;85.72
85476;BME280;75880;41.476;22.164;2024-01-30T05:50:37;102462.09;;;-4.26;85.26
85476;BME280;75880;41.476;22.164;2024-01-30T05:53:03;102452.25;;;-4.25;85.19
85476;BME280;75880;41.476;22.164;2024-01-30T05:55:29;102463.66;;;-4.17;85.45
85476;BME280;75880;41.476;22.164;2024-01-30T05:57:56;102460.25;;;-4.25;83.83
85476;BME280;75880;41.476;22.164;2024-01-30T06:00:21;102462.63;;;-4.16;84.82
85476;BME280;75880;41.476;22.164;2024-01-30T06:02:47;102468.41;;;-4.12;83.43
85476;BME280;75880;41.476;22.164;2024-01-30T06:05:13;102458.75;;;-4.13;83.96
85476;BME280;75880;41.476;22.164;2024-01-30T06:07:38;102473.56;;;-4.11;83.51
85476;BME280;75880;41.476;22.164;2024-01-30T06:10:04;102465.75;;;-4.12;84.97
85476;BME280;75880;41.476;22.164;2024-01-30T06:12:30;102469.06;;;-4.10;84.25
85476;BME280;75880;41.476;22.164;2024-01-30T06:14:56;102464.09;;;-4.13;84.16
85476;BME280;75880;41.476;22.164;2024-01-30T06:17:23;102462.81;;;-4.17;84.63
85476;BME280;75880;41.476;22.164;2024-01-30T06:19:49;102469.44;;;-4.13;82.99
85476;BME280;75880;41.476;22.164;2024-01-30T06:22:15;102463.13;;;-4.06;84.72
85476;BME280;75880;41.476;22.164;2024-01-30T06:24:41;102465.06;;;-4.00;84.62
85476;BME280;75880;41.476;22.164;2024-01-30T06:27:07;102478.63;;;-3.81;84.41
85476;BME280;75880;41.476;22.164;2024-01-30T06:29:32;102474.78;;;-3.72;83.77
85476;BME280;75880;41.476;22.164;2024-01-30T06:31:58;102484.13;;;-3.61;83.23
85476;BME280;75880;41.476;22.164;2024-01-30T06:34:24;102481.03;;;-3.65;82.38
85476;BME280;75880;41.476;22.164;2024-01-30T06:36:52;102489.97;;;-3.51;82.27
85476;BME280;75880;41.476;22.164;2024-01-30T06:39:17;102485.47;;;-3.51;82.25
85476;BME280;75880;41.476;22.164;2024-01-30T06:41:43;102496.06;;;-3.36;81.99
85476;BME280;75880;41.476;22.164;2024-01-30T06:44:09;102485.81;;;-3.33;81.92
85476;BME280;75880;41.476;22.164;2024-01-30T06:46:35;102490.06;;;-3.17;83.04
85476;BME280;75880;41.476;22.164;2024-01-30T06:49:01;102488.50;;;-3.05;82.36
85476;BME280;75880;41.476;22.164;2024-01-30T06:51:26;102501.38;;;-2.88;82.02
85476;BME280;75880;41.476;22.164;2024-01-30T06:53:52;102498.16;;;-2.77;81.21
85476;BME280;75880;41.476;22.164;2024-01-30T06:56:18;102505.88;;;-2.61;81.28
85476;BME280;75880;41.476;22.164;2024-01-30T06:58:47;102500.38;;;-2.46;81.74
85476;BME280;75880;41.476;22.164;2024-01-30T07:01:14;102494.66;;;-2.30;81.81
85476;BME280;75880;41.476;22.164;2024-01-30T07:03:40;102491.00;;;-2.23;80.62
85476;BME280;75880;41.476;22.164;2024-01-30T07:06:06;102506.53;;;-2.05;79.85
85476;BME280;75880;41.476;22.164;2024-01-30T07:08:31;102503.25;;;-2.01;80.07
85476;BME280;75880;41.476;22.164;2024-01-30T07:10:57;102501.84;;;-1.84;80.10
85476;BME280;75880;41.476;22.164;2024-01-30T07:13:23;102495.69;;;-1.58;78.26
85476;BME280;75880;41.476;22.164;2024-01-30T07:15:49;102487.63;;;-1.52;77.94
85476;BME280;75880;41.476;22.164;2024-01-30T07:18:15;102491.19;;;-1.38;77.36
85476;BME280;75880;41.476;22.164;2024-01-30T07:20:40;102489.09;;;-1.30;77.29
85476;BME280;75880;41.476;22.164;2024-01-30T07:23:12;102496.53;;;-1.25;77.64
85476;BME280;75880;41.476;22.164;2024-01-30T07:25:40;102502.31;;;-1.22;79.00
85476;BME280;75880;41.476;22.164;2024-01-30T07:28:07;102498.16;;;-1.11;79.55
85476;BME280;75880;41.476;22.164;2024-01-30T07:30:38;102496.09;;;-1.09;78.04
85476;BME280;75880;41.476;22.164;2024-01-30T07:33:04;102508.31;;;-1.00;77.62
85476;BME280;75880;41.476;22.164;2024-01-30T07:35:30;102500.22;;;-0.94;78.04
85476;BME280;75880;41.476;22.164;2024-01-30T07:37:56;102490.69;;;-0.83;77.48
85476;BME280;75880;41.476;22.164;2024-01-30T07:40:23;102493.13;;;-0.69;76.97
85476;BME280;75880;41.476;22.164;2024-01-30T07:42:49;102500.34;;;-0.50;76.33
85476;BME280;75880;41.476;22.164;2024-01-30T07:45:15;102490.97;;;-0.34;76.30
85476;BME280;75880;41.476;22.164;2024-01-30T07:47:41;102483.44;;;-0.19;76.56
85476;BME280;75880;41.476;22.164;2024-01-30T07:50:10;102495.78;;;0.01;75.14
85476;BME280;75880;41.476;22.164;2024-01-30T07:52:36;102483.25;;;0.19;76.29
85476;BME280;75880;41.476;22.164;2024-01-30T07:55:02;102485.63;;;0.34;74.45
85476;BME280;75880;41.476;22.164;2024-01-30T07:57:29;102483.34;;;0.62;72.99
85476;BME280;75880;41.476;22.164;2024-01-30T07:59:55;102494.06;;;0.93;73.23
85476;BME280;75880;41.476;22.164;2024-01-30T08:02:20;102483.69;;;0.96;72.18
85476;BME280;75880;41.476;22.164;2024-01-30T08:04:46;102487.53;;;1.07;72.44
85476;BME280;75880;41.476;22.164;2024-01-30T08:07:14;102482.88;;;1.14;69.86
85476;BME280;75880;41.476;22.164;2024-01-30T08:09:40;102481.25;;;1.31;69.48
85476;BME280;75880;41.476;22.164;2024-01-30T08:12:05;102489.78;;;1.46;68.43
85476;BME280;75880;41.476;22.164;2024-01-30T08:14:31;102488.81;;;1.58;68.62
85476;BME280;75880;41.476;22.164;2024-01-30T08:16:57;102491.13;;;1.73;69.04
85476;BME280;75880;41.476;22.164;2024-01-30T08:19:22;102495.56;;;1.85;68.11
85476;BME280;75880;41.476;22.164;2024-01-30T08:21:48;102474.91;;;1.91;67.89
85476;BME280;75880;41.476;22.164;2024-01-30T08:24:16;102480.41;;;2.14;68.18
85476;BME280;75880;41.476;22.164;2024-01-30T08:26:42;102478.13;;;2.29;66.45
85476;BME280;75880;41.476;22.164;2024-01-30T08:29:08;102482.41;;;2.59;66.18
85476;BME280;75880;41.476;22.164;2024-01-30T08:31:34;102479.13;;;2.69;64.25
85476;BME280;75880;41.476;22.164;2024-01-30T08:33:59;102480.56;;;2.83;63.35
85476;BME280;75880;41.476;22.164;2024-01-30T08:36:25;102478.34;;;2.91;63.86
85476;BME280;75880;41.476;22.164;2024-01-30T08:38:54;102475.66;;;3.03;62.15
85476;BME280;75880;41.476;22.164;2024-01-30T08:41:20;102475.75;;;3.08;61.19
85476;BME280;75880;41.476;22.164;2024-01-30T08:43:45;102480.34;;;3.19;59.50
85476;BME280;75880;41.476;22.164;2024-01-30T08:46:13;102477.88;;;3.29;60.68
85476;BME280;75880;41.476;22.164;2024-01-30T08:48:42;102477.97;;;3.34;59.07
85476;BME280;75880;41.476;22.164;2024-01-30T08:51:08;102470.78;;;3.39;59.43
85476;BME280;75880;41.476;22.164;2024-01-30T08:53:34;102477.94;;;3.57;58.94
85476;BME280;75880;41.476;22.164;2024-01-30T08:56:02;102475.31;;;3.73;57.48
85476;BME280;75880;41.476;22.164;2024-01-30T08:58:28;102474.50;;;3.72;56.38
85476;BME280;75880;41.476;22.164;2024-01-30T09:00:54;102464.13;;;3.81;58.28
85476;BME280;75880;41.476;22.164;2024-01-30T09:03:20;102459.34;;;3.99;55.81
85476;BME280;75880;41.476;22.164;2024-01-30T09:05:45;102458.94;;;4.07;56.48
85476;BME280;75880;41.476;22.164;2024-01-30T09:08:11;102459.81;;;4.24;56.12
85476;BME280;75880;41.476;22.164;2024-01-30T09:10:37;102452.41;;;4.20;55.67
85476;BME280;75880;41.476;22.164;2024-01-30T09:13:02;102447.94;;;4.42;54.38
85476;BME280;75880;41.476;22.164;2024-01-30T09:15:28;102450.13;;;4.45;54.80
85476;BME280;75880;41.476;22.164;2024-01-30T09:17:54;102439.31;;;4.61;52.45
85476;BME280;75880;41.476;22.164;2024-01-30T09:20:19;102426.50;;;4.57;52.84
85476;BME280;75880;41.476;22.164;2024-01-30T09:22:45;102421.47;;;4.65;54.86
85476;BME280;75880;41.476;22.164;2024-01-30T09:25:11;102418.66;;;4.77;53.69
85476;BME280;75880;41.476;22.164;2024-01-30T09:27:36;102425.06;;;4.87;51.37
85476;BME280;75880;41.476;22.164;2024-01-30T09:30:02;102418.75;;;4.98;50.72
85476;BME280;75880;41.476;22.164;2024-01-30T09:32:28;102412.97;;;5.11;51.59
85476;BME280;75880;41.476;22.164;2024-01-30T09:34:54;102415.25;;;5.19;49.38
85476;BME280;75880;41.476;22.164;2024-01-30T09:37:19;102408.88;;;5.30;49.19
85476;BME280;75880;41.476;22.164;2024-01-30T09:39:45;102404.91;;;5.38;49.78
85476;BME280;75880;41.476;22.164;2024-01-30T09:44:43;102395.28;;;5.52;46.40
85476;BME280;75880;41.476;22.164;2024-01-30T09:47:10;102405.69;;;5.60;44.27
85476;BME280;75880;41.476;22.164;2024-01-30T09:49:36;102391.72;;;5.68;44.63
85476;BME280;75880;41.476;22.164;2024-01-30T09:52:05;102393.22;;;5.80;44.24
85476;BME280;75880;41.476;22.164;2024-01-30T09:54:31;102371.09;;;5.72;43.82
85476;BME280;75880;41.476;22.164;2024-01-30T09:56:58;102382.47;;;5.90;45.11
85476;BME280;75880;41.476;22.164;2024-01-30T09:59:24;102381.84;;;6.10;45.83
85476;BME280;75880;41.476;22.164;2024-01-30T10:01:50;102377.50;;;6.09;44.62
85476;BME280;75880;41.476;22.164;2024-01-30T10:04:17;102379.13;;;6.10;43.22
85476;BME280;75880;41.476;22.164;2024-01-30T10:06:43;102365.78;;;6.08;42.00
85476;BME280;75880;41.476;22.164;2024-01-30T10:09:09;102370.84;;;6.26;43.18
85476;BME280;75880;41.476;22.164;2024-01-30T10:11:36;102365.72;;;6.30;42.04
85476;BME280;75880;41.476;22.164;2024-01-30T10:14:02;102347.50;;;6.30;43.02
85476;BME280;75880;41.476;22.164;2024-01-30T10:16:28;102359.22;;;6.31;43.58
85476;BME280;75880;41.476;22.164;2024-01-30T10:18:53;102344.78;;;6.30;43.36
85476;BME280;75880;41.476;22.164;2024-01-30T10:21:19;102354.97;;;6.45;43.61
85476;BME280;75880;41.476;22.164;2024-01-30T10:23:45;102336.75;;;6.45;43.25
85476;BME280;75880;41.476;22.164;2024-01-30T10:26:11;102334.31;;;6.49;40.41
85476;BME280;75880;41.476;22.164;2024-01-30T10:28:36;102334.59;;;6.47;41.17
85476;BME280;75880;41.476;22.164;2024-01-30T10:31:02;102331.06;;;6.47;41.82
85476;BME280;75880;41.476;22.164;2024-01-30T10:33:31;102326.75;;;6.51;43.29
85476;BME280;75880;41.476;22.164;2024-01-30T10:36:02;102324.94;;;6.66;42.09
85476;BME280;75880;41.476;22.164;2024-01-30T10:38:29;102292.84;;;6.63;43.77
85476;BME280;75880;41.476;22.164;2024-01-30T10:41:00;102308.72;;;6.86;42.95
85476;BME280;75880;41.476;22.164;2024-01-30T10:43:36;102301.94;;;6.89;40.18
85476;BME280;75880;41.476;22.164;2024-01-30T10:46:10;102288.16;;;7.10;41.70
85476;BME280;75880;41.476;22.164;2024-01-30T10:48:43;102301.28;;;7.28;41.05
85476;BME280;75880;41.476;22.164;2024-01-30T10:51:14;102286.00;;;7.17;41.43
85476;BME280;75880;41.476;22.164;2024-01-30T10:53:41;102280.31;;;7.29;40.98
85476;BME280;75880;41.476;22.164;2024-01-30T10:56:10;102269.75;;;7.37;42.03
85476;BME280;75880;41.476;22.164;2024-01-30T10:58:37;102271.66;;;7.47;42.33
85476;BME280;75880;41.476;22.164;2024-01-30T11:01:03;102262.13;;;7.39;39.27
85476;BME280;75880;41.476;22.164;2024-01-30T11:03:30;102270.56;;;7.48;41.39
85476;BME280;75880;41.476;22.164;2024-01-30T11:06:00;102260.72;;;7.32;39.67
85476;BME280;75880;41.476;22.164;2024-01-30T11:08:26;102261.28;;;7.39;39.61
85476;BME280;75880;41.476;22.164;2024-01-30T11:10:58;102252.31;;;7.43;39.11
85476;BME280;75880;41.476;22.164;2024-01-30T11:13:30;102246.28;;;7.36;39.12
85476;BME280;75880;41.476;22.164;2024-01-30T11:16:06;102241.69;;;7.42;37.48
85476;BME280;75880;41.476;22.164;2024-01-30T11:18:33;102234.88;;;7.49;38.39
85476;BME280;75880;41.476;22.164;2024-01-30T11:20:59;102227.81;;;7.63;39.07
85476;BME280;75880;41.476;22.164;2024-01-30T11:23:28;102227.00;;;7.77;39.49
85476;BME280;75880;41.476;22.164;2024-01-30T11:25:55;102227.00;;;7.77;37.43
85476;BME280;75880;41.476;22.164;2024-01-30T11:28:22;102232.75;;;7.86;39.24
85476;BME280;75880;41.476;22.164;2024-01-30T11:30:47;102212.84;;;7.80;38.88
85476;BME280;75880;41.476;22.164;2024-01-30T11:33:27;102219.66;;;7.88;36.49
85476;BME280;75880;41.476;22.164;2024-01-30T11:35:57;102226.72;;;7.89;36.83
85476;BME280;75880;41.476;22.164;2024-01-30T11:38:26;102213.94;;;7.94;37.98
85476;BME280;75880;41.476;22.164;2024-01-30T11:40:54;102214.19;;;8.13;38.92
85476;BME280;75880;41.476;22.164;2024-01-30T11:43:20;102202.44;;;8.07;37.59
85476;BME280;75880;41.476;22.164;2024-01-30T11:45:46;102191.00;;;8.00;37.27
85476;BME280;75880;41.476;22.164;2024-01-30T11:48:12;102202.47;;;8.17;37.41
85476;BME280;75880;41.476;22.164;2024-01-30T11:50:39;102189.94;;;8.16;37.97
85476;BME280;75880;41.476;22.164;2024-01-30T11:53:06;102185.84;;;8.24;39.53
85476;BME280;75880;41.476;22.164;2024-01-30T11:55:32;102186.94;;;8.28;37.73
85476;BME280;75880;41.476;22.164;2024-01-30T11:57:58;102189.09;;;8.16;37.35
85476;BME280;75880;41.476;22.164;2024-01-30T12:00:24;102182.81;;;8.30;37.41
85476;BME280;75880;41.476;22.164;2024-01-30T12:02:54;102166.75;;;8.19;35.86
85476;BME280;75880;41.476;22.164;2024-01-30T12:05:26;102170.00;;;8.26;35.79
85476;BME280;75880;41.476;22.164;2024-01-30T12:07:52;102172.47;;;8.22;36.30
85476;BME280;75880;41.476;22.164;2024-01-30T12:10:18;102175.50;;;8.21;35.56
85476;BME280;75880;41.476;22.164;2024-01-30T12:12:46;102173.78;;;8.40;35.43
85476;BME280;75880;41.476;22.164;2024-01-30T12:15:13;102163.97;;;8.34;35.17
85476;BME280;75880;41.476;22.164;2024-01-30T12:17:38;102156.34;;;8.36;35.70
85476;BME280;75880;41.476;22.164;2024-01-30T12:22:41;102151.38;;;8.58;38.12
85476;BME280;75880;41.476;22.164;2024-01-30T12:25:08;102158.41;;;8.69;36.88
85476;BME280;75880;41.476;22.164;2024-01-30T12:27:35;102157.28;;;8.70;34.15
85476;BME280;75880;41.476;22.164;2024-01-30T12:30:02;102141.50;;;8.67;34.27
85476;BME280;75880;41.476;22.164;2024-01-30T12:32:30;102147.22;;;8.70;35.50
85476;BME280;75880;41.476;22.164;2024-01-30T12:34:56;102135.19;;;8.71;35.38
85476;BME280;75880;41.476;22.164;2024-01-30T12:37:22;102130.00;;;8.75;35.85
85476;BME280;75880;41.476;22.164;2024-01-30T12:39:51;102115.25;;;8.71;34.59
85476;BME280;75880;41.476;22.164;2024-01-30T12:42:19;102121.78;;;8.80;37.10
85476;BME280;75880;41.476;22.164;2024-01-30T12:44:47;102098.88;;;8.76;36.18
85476;BME280;75880;41.476;22.164;2024-01-30T12:47:13;102111.84;;;8.94;36.51